createdAt,value
2023-03-15T00:02:08.126Z,7.48
2023-03-15T00:04:37.749Z,7.37
2023-03-15T00:07:06.943Z,7.29
2023-03-15T00:09:36.494Z,7.25
2023-03-15T00:12:07.208Z,7.18
2023-03-15T00:14:37.681Z,7.12
2023-03-15T00:17:06.958Z,7.09
2023-03-15T00:19:35.955Z,7.04
2023-03-15T00:22:05.471Z,6.97
2023-03-15T00:24:34.984Z,6.94
2023-03-15T00:27:05.976Z,6.92
2023-03-15T00:29:35.889Z,6.95
2023-03-15T00:32:05.792Z,7.06
2023-03-15T00:34:35.007Z,7.07
2023-03-15T00:37:03.143Z,7.01
2023-03-15T00:39:37.412Z,6.94
2023-03-15T01:40:43.097Z,5.89
2023-03-15T01:43:18.420Z,5.90
2023-03-15T01:46:38.125Z,5.87
2023-03-15T01:49:22.215Z,5.80
2023-03-15T01:51:55.788Z,5.80
2023-03-15T01:54:31.180Z,5.82
2023-03-15T01:57:03.990Z,5.83
2023-03-15T01:59:36.776Z,5.79
2023-03-15T02:02:07.743Z,5.75
2023-03-15T02:04:46.015Z,5.74
2023-03-15T02:07:18.193Z,5.76
2023-03-15T02:09:54.760Z,5.76
2023-03-15T02:12:24.156Z,5.78
2023-03-15T02:14:54.117Z,5.77
2023-03-15T02:17:30.864Z,5.74
2023-03-15T02:20:12.235Z,5.73
2023-03-15T02:22:52.689Z,5.66
2023-03-15T02:25:34.445Z,5.62
2023-03-15T02:28:05.870Z,5.62
2023-03-15T02:30:35.448Z,5.61
2023-03-15T02:33:09.160Z,5.64
2023-03-15T02:35:38.471Z,5.63
2023-03-15T02:38:07.683Z,5.62
2023-03-15T02:40:39.713Z,5.60
2023-03-15T02:43:13.926Z,5.61
2023-03-15T02:45:44.854Z,5.59
2023-03-15T02:48:14.066Z,5.53
2023-03-15T02:50:42.047Z,5.51
2023-03-15T02:53:11.840Z,5.47
2023-03-15T02:55:41.035Z,5.44
2023-03-15T02:58:09.068Z,5.42
2023-03-15T03:00:38.922Z,5.40
2023-03-15T03:03:08.523Z,5.40
2023-03-15T03:05:37.942Z,5.40
2023-03-15T03:08:07.550Z,5.38
2023-03-15T03:10:36.781Z,5.36
2023-03-15T03:13:04.918Z,5.41
2023-03-15T03:15:34.527Z,5.39
2023-03-15T03:18:05.057Z,5.40
2023-03-15T03:20:34.755Z,5.42
2023-03-15T03:23:05.720Z,5.44
2023-03-15T03:25:36.213Z,5.47
2023-03-15T03:28:05.367Z,5.51
2023-03-15T03:30:35.054Z,5.51
2023-03-15T03:33:04.480Z,5.44
2023-03-15T03:35:33.616Z,5.43
2023-03-15T03:38:01.619Z,5.42
2023-03-15T04:11:29.254Z,5.16
2023-03-15T04:13:59.059Z,5.13
2023-03-15T04:16:28.340Z,5.14
2023-03-15T04:18:56.400Z,5.11
2023-03-15T04:21:25.947Z,5.08
2023-03-15T04:23:55.327Z,5.08
2023-03-15T04:26:25.975Z,5.07
2023-03-15T04:28:56.389Z,5.04
2023-03-15T04:31:26.713Z,5.00
2023-03-15T04:33:56.424Z,4.99
2023-03-15T04:36:25.498Z,5.00
2023-03-15T04:39:04.907Z,4.98
2023-03-15T04:41:34.827Z,4.97
2023-03-15T04:44:05.160Z,4.97
2023-03-15T04:46:34.371Z,5.01
2023-03-15T04:49:04.518Z,4.96
2023-03-15T04:51:34.568Z,4.87
2023-03-15T04:54:03.957Z,4.86
2023-03-15T04:56:31.988Z,4.90
2023-03-15T04:59:01.284Z,4.90
2023-03-15T05:01:30.758Z,4.89
2023-03-15T05:04:00.330Z,4.81
2023-03-15T05:06:30.047Z,4.78
2023-03-15T05:08:59.332Z,4.77
2023-03-15T05:11:27.440Z,4.74
2023-03-15T05:13:56.846Z,4.73
2023-03-15T05:16:26.457Z,4.79
2023-03-15T05:18:56.842Z,4.82
2023-03-15T05:21:26.028Z,4.85
2023-03-15T05:23:55.194Z,4.87
2023-03-15T05:26:25.053Z,4.86
2023-03-15T05:28:54.209Z,4.86
2023-03-15T05:31:22.301Z,4.85
2023-03-15T05:33:53.971Z,4.87
2023-03-15T05:36:23.153Z,4.93
2023-03-15T05:38:52.204Z,4.99
2023-03-15T05:41:21.224Z,5.09
2023-03-15T05:43:50.279Z,5.20
2023-03-15T05:46:19.980Z,5.25
2023-03-15T05:48:49.020Z,5.30
2023-03-15T05:51:18.156Z,5.35
2023-03-15T05:53:47.585Z,5.43
2023-03-15T05:56:16.482Z,5.51
2023-03-15T05:58:45.488Z,5.53
2023-03-15T06:01:14.603Z,5.56
2023-03-15T06:03:43.777Z,5.60
2023-03-15T06:06:12.822Z,5.69
2023-03-15T06:08:41.825Z,5.78
2023-03-15T06:11:11.715Z,5.86
2023-03-15T06:17:43.206Z,5.94
2023-03-15T06:20:13.875Z,6.02
2023-03-15T06:22:42.945Z,6.03
2023-03-15T06:25:11.530Z,6.04
2023-03-15T06:27:40.541Z,6.05
2023-03-15T06:30:11.929Z,6.08
2023-03-15T06:32:41.008Z,6.13
2023-03-15T06:35:10.439Z,6.17
2023-03-15T06:37:41.371Z,6.22
2023-03-15T06:40:13.435Z,6.32
2023-03-15T06:42:42.544Z,6.41
2023-03-15T06:45:15.930Z,6.52
2023-03-15T06:47:44.944Z,6.55
2023-03-15T06:50:14.055Z,6.58
2023-03-15T06:52:43.158Z,6.61
2023-03-15T06:55:16.724Z,6.66
2023-03-15T06:57:45.925Z,6.74
2023-03-15T07:00:17.198Z,6.84
2023-03-15T07:02:46.187Z,6.90
2023-03-15T07:05:16.119Z,6.97
2023-03-15T07:07:45.115Z,7.05
2023-03-15T07:10:14.401Z,7.14
2023-03-15T07:12:43.495Z,7.21
2023-03-15T07:15:13.592Z,7.29
2023-03-15T07:17:42.669Z,7.37
2023-03-15T07:20:12.213Z,7.46
2023-03-15T07:22:41.266Z,7.51
2023-03-15T07:25:11.016Z,7.57
2023-03-15T07:27:40.100Z,7.69
2023-03-15T07:30:10.277Z,7.81
2023-03-15T07:32:39.499Z,7.91
2023-03-15T07:35:12.923Z,8.05
2023-03-15T07:37:44.607Z,8.19
2023-03-15T07:40:15.581Z,8.33
2023-03-15T07:42:45.396Z,8.45
2023-03-15T07:45:14.729Z,8.55
2023-03-15T07:47:44.407Z,8.64
2023-03-15T07:50:16.922Z,8.65
2023-03-15T07:52:46.173Z,8.70
2023-03-15T07:55:15.285Z,8.78
2023-03-15T07:57:43.178Z,8.85
2023-03-15T08:00:14.329Z,8.90
2023-03-15T08:02:43.821Z,8.94
2023-03-15T08:05:12.957Z,9.00
2023-03-15T08:07:41.155Z,9.07
2023-03-15T08:10:12.218Z,9.10
2023-03-15T08:12:42.583Z,9.12
2023-03-15T08:15:15.738Z,9.13
2023-03-15T08:17:46.967Z,9.19
2023-03-15T08:20:17.589Z,9.25
2023-03-15T08:22:47.219Z,9.29
2023-03-15T08:25:19.551Z,9.34
2023-03-15T08:27:50.496Z,9.39
2023-03-15T08:30:21.471Z,9.42
2023-03-15T08:32:51.946Z,9.45
2023-03-15T08:35:22.484Z,9.54
2023-03-15T08:37:51.907Z,9.63
2023-03-15T08:40:24.813Z,9.66
2023-03-15T08:42:55.283Z,9.71
2023-03-15T08:45:25.764Z,9.78
2023-03-15T08:47:56.682Z,9.81
2023-03-15T08:50:29.504Z,9.91
2023-03-15T08:52:58.800Z,10.05
2023-03-15T08:55:29.485Z,10.27
2023-03-15T08:58:01.018Z,10.49
2023-03-15T09:00:30.470Z,10.72
2023-03-15T09:03:03.842Z,10.97
2023-03-15T09:05:36.470Z,11.21
2023-03-15T09:08:06.341Z,11.41
2023-03-15T09:10:35.664Z,11.58
2023-03-15T09:13:04.674Z,11.66
2023-03-15T09:15:33.675Z,11.71
2023-03-15T09:18:05.553Z,11.76
2023-03-15T09:20:34.692Z,11.77
2023-03-15T09:23:02.642Z,11.70
2023-03-15T09:25:31.736Z,11.67
2023-03-15T09:27:59.882Z,11.65
2023-03-15T09:30:29.379Z,11.68
2023-03-15T09:33:09.953Z,11.72
2023-03-15T09:35:38.995Z,11.73
2023-03-15T09:38:08.115Z,11.81
2023-03-15T09:40:58.466Z,11.91
2023-03-15T09:43:50.968Z,11.96
2023-03-15T09:46:29.284Z,11.97
2023-03-15T09:49:04.424Z,12.03
2023-03-15T09:51:41.439Z,12.13
2023-03-15T09:54:14.654Z,12.19
2023-03-15T09:56:51.104Z,12.22
2023-03-15T09:59:22.351Z,12.27
2023-03-15T10:01:56.100Z,12.30
2023-03-15T10:04:30.506Z,12.35
2023-03-15T10:07:03.967Z,12.40
2023-03-15T10:09:34.730Z,12.51
2023-03-15T10:12:23.356Z,12.60
2023-03-15T10:15:26.216Z,12.66
2023-03-15T10:18:26.352Z,12.70
2023-03-15T10:21:07.497Z,12.76
2023-03-15T10:23:55.717Z,12.80
2023-03-15T10:26:33.610Z,12.91
2023-03-15T10:29:15.590Z,13.02
2023-03-15T10:31:46.640Z,13.13
2023-03-15T10:34:16.624Z,13.24
2023-03-15T10:36:49.345Z,13.32
2023-03-15T10:39:23.417Z,13.40
2023-03-15T10:41:55.548Z,13.48
2023-03-15T10:44:27.564Z,13.54
2023-03-15T10:47:21.469Z,13.53
2023-03-15T10:50:01.122Z,13.61
2023-03-15T10:52:38.269Z,13.67
2023-03-15T10:55:14.038Z,13.76
2023-03-15T10:57:55.559Z,13.84
2023-03-15T11:00:33.609Z,13.93
2023-03-15T11:03:06.136Z,14.02
2023-03-15T11:05:41.566Z,14.10
2023-03-15T11:08:14.426Z,14.11
2023-03-15T11:10:47.157Z,14.13
2023-03-15T11:13:23.874Z,14.17
2023-03-15T11:16:03.745Z,14.20
2023-03-15T11:18:43.162Z,14.25
2023-03-15T11:21:19.618Z,14.37
2023-03-15T11:23:50.810Z,14.42
2023-03-15T11:26:39.214Z,14.45
2023-03-15T11:29:23.752Z,14.52
2023-03-15T11:31:56.729Z,14.57
2023-03-15T11:34:39.090Z,14.59
2023-03-15T11:37:19.605Z,14.58
2023-03-15T11:40:10.504Z,14.58
2023-03-15T11:42:48.553Z,14.55
2023-03-15T11:45:29.438Z,14.49
2023-03-15T11:48:06.404Z,14.45
2023-03-15T11:50:40.168Z,14.51
2023-03-15T11:53:14.437Z,14.59
2023-03-15T11:55:51.704Z,14.66
2023-03-15T11:58:37.833Z,14.75
2023-03-15T12:01:11.121Z,14.83
2023-03-15T12:03:45.107Z,14.93
2023-03-15T12:06:47.427Z,15.03
2023-03-15T12:09:51.421Z,15.06
2023-03-15T12:12:44.689Z,15.11
2023-03-15T12:15:45.340Z,15.11
2023-03-15T12:18:26.435Z,15.12
2023-03-15T12:21:24.002Z,15.12
2023-03-15T12:24:04.689Z,15.14
2023-03-15T12:26:42.780Z,15.17
2023-03-15T12:29:22.623Z,15.23
2023-03-15T12:31:58.233Z,15.29
2023-03-15T12:34:36.584Z,15.34
2023-03-15T12:37:09.838Z,15.39
2023-03-15T12:39:42.850Z,15.43
2023-03-15T12:42:53.931Z,15.47
2023-03-15T12:45:45.811Z,15.55
2023-03-15T12:48:23.207Z,15.61
2023-03-15T12:51:14.045Z,15.62
2023-03-15T12:53:52.602Z,15.65
2023-03-15T12:56:44.321Z,15.67
2023-03-15T12:59:47.753Z,15.72
2023-03-15T13:02:44.398Z,15.79
2023-03-15T13:05:20.590Z,15.88
2023-03-15T13:08:19.556Z,15.96
2023-03-15T13:10:59.962Z,16.01
2023-03-15T13:14:00.200Z,16.05
2023-03-15T13:16:36.237Z,16.12
2023-03-15T13:19:18.681Z,16.21
2023-03-15T13:22:15.431Z,16.33
2023-03-15T13:24:57.296Z,16.43
2023-03-15T13:27:50.388Z,16.50
2023-03-15T13:30:38.285Z,16.54
2023-03-15T13:33:22.523Z,16.61
2023-03-15T13:36:11.336Z,16.68
2023-03-15T13:38:43.486Z,16.73
2023-03-15T13:41:21.556Z,16.80
2023-03-15T13:43:52.721Z,16.88
2023-03-15T13:46:23.897Z,16.98
2023-03-15T13:48:54.295Z,17.03
2023-03-15T13:51:35.636Z,17.10
2023-03-15T13:54:08.555Z,17.19
2023-03-15T13:56:49.703Z,17.27
2023-03-15T13:59:20.151Z,17.33
2023-03-15T14:01:54.077Z,17.39
2023-03-15T14:04:39.747Z,17.46
2023-03-15T14:07:27.671Z,17.52
2023-03-15T14:10:24.668Z,17.69
2023-03-15T14:12:56.137Z,17.92
2023-03-15T14:15:35.182Z,18.03
2023-03-15T14:18:16.977Z,18.09
2023-03-15T14:20:52.967Z,18.22
2023-03-15T14:23:26.474Z,18.27
2023-03-15T14:26:01.145Z,18.34
2023-03-15T14:28:32.749Z,18.36
2023-03-15T14:31:02.354Z,18.38
2023-03-15T14:33:37.579Z,18.44
2023-03-15T14:36:10.127Z,18.50
2023-03-15T14:38:40.742Z,18.49
2023-03-15T14:41:25.262Z,18.48
2023-03-15T14:43:54.513Z,18.63
2023-03-15T14:46:23.987Z,18.80
2023-03-15T14:48:53.356Z,18.83
2023-03-15T14:51:25.145Z,19.32
2023-03-15T14:53:57.170Z,20.08
2023-03-15T14:56:26.282Z,20.07
2023-03-15T14:58:55.452Z,19.80
2023-03-15T15:01:26.894Z,19.48
2023-03-15T15:03:59.225Z,19.26
2023-03-15T15:06:31.390Z,19.06
2023-03-15T15:09:03.130Z,18.85
2023-03-15T15:11:32.959Z,18.68
2023-03-15T15:14:29.482Z,18.49
2023-03-15T15:16:58.630Z,18.28
2023-03-15T15:19:27.804Z,18.13
2023-03-15T15:21:57.558Z,17.99
2023-03-15T15:24:27.534Z,17.84
2023-03-15T15:26:56.535Z,17.70
2023-03-15T15:29:25.598Z,17.59
2023-03-15T15:31:55.156Z,17.49
2023-03-15T15:34:24.679Z,17.40
2023-03-15T15:36:53.959Z,17.33
2023-03-15T15:39:25.618Z,17.26
2023-03-15T15:41:54.575Z,17.19
2023-03-15T15:44:24.955Z,17.12
2023-03-15T15:46:54.354Z,17.04
2023-03-15T15:49:23.846Z,16.95
2023-03-15T15:51:52.883Z,16.85
2023-03-15T15:54:26.124Z,16.74
2023-03-15T15:56:57.816Z,16.63
2023-03-15T15:59:27.253Z,16.54
2023-03-15T16:02:01.711Z,16.44
2023-03-15T16:04:32.336Z,16.34
2023-03-15T16:07:03.316Z,16.26
2023-03-15T16:09:35.446Z,16.18
2023-03-15T16:12:11.213Z,16.10
2023-03-15T16:14:41.642Z,16.04
2023-03-15T16:17:18.109Z,15.99
2023-03-15T16:19:47.499Z,15.91
2023-03-15T16:22:18.455Z,15.86
2023-03-15T16:24:51.438Z,15.81
2023-03-15T16:27:26.940Z,15.74
2023-03-15T16:29:56.213Z,15.70
2023-03-15T16:32:42.878Z,15.64
2023-03-15T16:35:14.941Z,15.55
2023-03-15T16:37:47.338Z,15.51
2023-03-15T16:40:22.557Z,15.48
2023-03-15T16:42:52.187Z,15.45
2023-03-15T16:45:22.075Z,15.41
2023-03-15T16:47:51.659Z,15.36
2023-03-15T16:50:21.174Z,15.32
2023-03-15T16:52:55.432Z,15.25
2023-03-15T16:55:26.821Z,15.21
2023-03-15T16:57:57.535Z,15.17
2023-03-15T17:00:27.312Z,15.15
2023-03-15T17:02:59.486Z,15.11
2023-03-15T17:05:28.964Z,15.08
2023-03-15T17:08:00.217Z,15.05
2023-03-15T17:10:32.109Z,15.02
2023-03-15T17:13:02.540Z,14.97
2023-03-15T17:15:31.692Z,14.92
2023-03-15T17:18:02.658Z,14.87
2023-03-15T17:20:31.837Z,14.81
2023-03-15T17:23:04.282Z,14.77
2023-03-15T17:25:34.680Z,14.72
2023-03-15T17:28:04.816Z,14.69
2023-03-15T17:30:36.223Z,14.67
2023-03-15T17:33:06.116Z,14.63
2023-03-15T17:35:37.576Z,14.60
2023-03-15T17:38:13.722Z,14.58
2023-03-15T17:40:43.271Z,14.56
2023-03-15T17:43:14.396Z,14.53
2023-03-15T17:45:44.278Z,14.48
2023-03-15T17:48:13.924Z,14.41
2023-03-15T17:50:45.284Z,14.33
2023-03-15T17:53:17.298Z,14.27
2023-03-15T17:55:49.088Z,14.22
2023-03-15T17:58:22.452Z,14.15
2023-03-15T18:00:56.006Z,14.10
2023-03-15T18:03:31.350Z,14.08
2023-03-15T18:06:05.136Z,14.04
2023-03-15T18:08:36.406Z,14.01
2023-03-15T18:11:16.909Z,13.98
2023-03-15T18:13:46.067Z,13.93
2023-03-15T18:16:15.475Z,13.89
2023-03-15T18:18:48.159Z,13.88
2023-03-15T18:21:20.347Z,13.80
2023-03-15T18:23:53.788Z,13.74
2023-03-15T18:26:26.593Z,13.67
2023-03-15T18:28:56.063Z,13.61
2023-03-15T18:31:26.805Z,13.55
2023-03-15T18:33:57.205Z,13.47
2023-03-15T18:36:26.685Z,13.40
2023-03-15T18:38:56.689Z,13.33
2023-03-15T18:41:26.852Z,13.29
2023-03-15T18:43:58.337Z,13.23
2023-03-15T18:46:27.717Z,13.17
2023-03-15T18:48:57.015Z,13.13
2023-03-15T18:51:27.768Z,13.08
2023-03-15T18:53:57.448Z,13.01
2023-03-15T18:56:31.466Z,12.97
2023-03-15T18:59:01.967Z,12.92
2023-03-15T19:01:33.995Z,12.86
2023-03-15T19:04:03.302Z,12.81
2023-03-15T19:06:34.651Z,12.76
2023-03-15T19:09:04.957Z,12.70
2023-03-15T19:11:37.804Z,12.64
2023-03-15T19:14:07.485Z,12.59
2023-03-15T19:16:53.382Z,12.56
2023-03-15T19:19:23.980Z,12.53
2023-03-15T19:22:05.759Z,12.50
2023-03-15T19:24:37.290Z,12.46
2023-03-15T19:27:09.970Z,12.43
2023-03-15T19:29:45.158Z,12.38
2023-03-15T19:32:19.906Z,12.34
2023-03-15T19:34:52.579Z,12.30
2023-03-15T19:37:25.182Z,12.22
2023-03-15T19:39:59.774Z,12.14
2023-03-15T19:42:31.143Z,12.10
2023-03-15T19:45:11.995Z,12.08
2023-03-15T19:47:44.414Z,12.07
2023-03-15T19:53:00.325Z,12.00
2023-03-15T19:55:31.701Z,11.96
2023-03-15T19:58:01.273Z,11.90
2023-03-15T20:00:33.978Z,11.87
2023-03-15T20:03:03.210Z,11.84
2023-03-15T20:05:34.448Z,11.83
2023-03-15T20:08:03.688Z,11.78
2023-03-15T20:10:33.190Z,11.71
2023-03-15T20:13:03.174Z,11.66
2023-03-15T20:15:32.191Z,11.60
2023-03-15T20:18:03.718Z,11.58
2023-03-15T20:20:33.077Z,11.56
2023-03-15T20:23:03.134Z,11.50
2023-03-15T20:25:32.438Z,11.46
2023-03-15T20:28:03.575Z,11.42
2023-03-15T20:30:33.065Z,11.36
2023-03-15T20:33:02.502Z,11.30
2023-03-15T20:35:31.661Z,11.24
2023-03-15T20:38:06.259Z,11.22
2023-03-15T20:40:37.936Z,11.18
2023-03-15T20:43:07.724Z,11.13
2023-03-15T20:45:36.970Z,11.11
2023-03-15T20:48:06.272Z,11.06
2023-03-15T20:50:41.511Z,11.02
2023-03-15T20:53:14.119Z,10.98
2023-03-15T20:55:44.965Z,10.96
2023-03-15T20:58:17.418Z,10.93
2023-03-15T21:00:47.795Z,10.92
2023-03-15T21:03:18.120Z,10.89
2023-03-15T21:05:47.867Z,10.84
2023-03-15T21:08:19.753Z,10.80
2023-03-15T21:10:49.226Z,10.77
2023-03-15T21:13:18.522Z,10.74
2023-03-15T21:15:48.431Z,10.67
2023-03-15T21:18:21.933Z,10.58
2023-03-15T21:20:58.232Z,10.50
2023-03-15T21:23:30.663Z,10.43
2023-03-15T21:26:03.119Z,10.38
2023-03-15T21:28:35.516Z,10.34
2023-03-15T21:31:05.544Z,10.30
2023-03-15T21:33:35.338Z,10.26
2023-03-15T21:36:05.416Z,10.23
2023-03-15T21:38:35.991Z,10.18
2023-03-15T21:41:10.627Z,10.11
2023-03-15T21:43:41.688Z,10.05
2023-03-15T21:46:13.427Z,10.02
2023-03-15T21:48:43.143Z,9.98
2023-03-15T21:51:14.581Z,9.99
2023-03-15T21:53:46.035Z,9.96
2023-03-15T21:56:16.231Z,9.96
2023-03-15T21:58:45.760Z,9.97
2023-03-15T22:01:15.030Z,9.97
2023-03-15T22:03:44.272Z,9.96
2023-03-15T22:06:16.768Z,9.90
2023-03-15T22:08:47.285Z,9.83
2023-03-15T22:11:26.057Z,9.76
2023-03-15T22:13:59.258Z,9.77
2023-03-15T22:16:33.042Z,9.80
2023-03-15T22:19:04.052Z,9.83
2023-03-15T22:21:36.368Z,9.81
2023-03-15T22:24:21.206Z,9.79
2023-03-15T22:26:52.648Z,9.77
2023-03-15T22:29:21.968Z,9.76
2023-03-15T22:31:53.039Z,9.73
2023-03-15T22:34:27.034Z,9.69
2023-03-15T22:36:56.227Z,9.65
2023-03-15T22:39:27.304Z,9.62
2023-03-15T22:41:57.944Z,9.58
2023-03-15T22:44:30.959Z,9.56
2023-03-15T22:47:02.393Z,9.53
2023-03-15T22:49:33.385Z,9.50
2023-03-15T22:52:05.271Z,9.47
2023-03-15T22:54:35.482Z,9.48
2023-03-15T22:57:09.621Z,9.51
2023-03-15T22:59:39.810Z,9.51
2023-03-15T23:02:11.546Z,9.53
2023-03-15T23:04:41.649Z,9.55
2023-03-15T23:07:11.504Z,9.53
2023-03-15T23:09:41.113Z,9.53
2023-03-15T23:12:12.244Z,9.56
2023-03-15T23:14:44.742Z,9.56
2023-03-15T23:17:16.544Z,9.53
2023-03-15T23:19:48.025Z,9.48
2023-03-15T23:22:17.449Z,9.46
2023-03-15T23:24:48.269Z,9.46
2023-03-15T23:27:17.593Z,9.45
2023-03-15T23:29:55.369Z,9.42
2023-03-15T23:32:27.288Z,9.38
2023-03-15T23:34:57.457Z,9.36
2023-03-15T23:37:30.672Z,9.31
2023-03-15T23:40:01.616Z,9.29
2023-03-15T23:42:32.471Z,9.29
2023-03-15T23:45:09.174Z,9.29
2023-03-15T23:47:39.751Z,9.30
2023-03-15T23:50:12.876Z,9.37
2023-03-15T23:53:01.950Z,9.45
2023-03-15T23:55:33.042Z,9.51
2023-03-15T23:58:06.206Z,9.52
